Time;durP1;ratioP1;P1;durP2;ratioP2;P2;SDS_P1;SDS_P2;PMS_P1;PMS_P2;Temp;Humidity;BMP_temperature;BMP_pressure;BME280_temperature;BME280_humidity;BME280_pressure;Samples;Min_cycle;Max_cycle;Signal;HPM_P1;HPM_P2
2021/04/11 00:01:41;;;;;;;35.17;25.93;;;7.20;99.90;;;;;;5113155;28;20173;-80
2021/04/11 00:04:06;;;;;;;36.40;25.23;;;7.00;99.90;;;;;;5113675;28;20648;-79
2021/04/11 00:06:32;;;;;;;31.37;24.67;;;6.90;99.90;;;;;;5112092;28;20165;-79
2021/04/11 00:08:58;;;;;;;35.37;25.53;;;6.80;99.90;;;;;;5113667;28;20165;-80
2021/04/11 00:11:24;;;;;;;32.93;25.07;;;6.70;99.90;;;;;;5113211;28;20529;-80
2021/04/11 00:13:53;;;;;;;37.07;25.43;;;6.70;99.90;;;;;;5113981;28;20165;-80
2021/04/11 00:16:18;;;;;;;29.00;23.90;;;6.70;99.90;;;;;;5117232;27;20204;-80
2021/04/11 00:18:44;;;;;;;31.27;24.47;;;6.70;99.90;;;;;;5117416;28;20614;-79
2021/04/11 00:21:10;;;;;;;35.67;26.67;;;6.70;99.90;;;;;;5115855;28;20177;-79
2021/04/11 00:23:36;;;;;;;34.37;26.27;;;6.70;99.90;;;;;;5115710;28;20654;-80
2021/04/11 00:26:03;;;;;;;35.97;26.57;;;6.60;99.90;;;;;;5115634;28;20172;-80
2021/04/11 00:28:29;;;;;;;38.23;28.80;;;6.60;99.90;;;;;;5115730;28;20200;-80
2021/04/11 00:30:55;;;;;;;41.20;31.20;;;6.60;99.90;;;;;;5116673;28;20617;-79
2021/04/11 00:33:36;;;;;;;42.77;30.83;;;6.60;99.90;;;;;;5115595;28;20234;-80
2021/04/11 00:36:13;;;;;;;46.10;31.43;;;6.60;99.90;;;;;;5115195;28;20181;-80
2021/04/11 00:38:40;;;;;;;43.57;32.30;;;6.60;99.90;;;;;;5115667;28;20606;-79
2021/04/11 00:41:31;;;;;;;41.37;31.53;;;6.60;99.90;;;;;;5098412;28;20177;-79
2021/04/11 00:43:57;;;;;;;44.80;31.67;;;6.60;99.90;;;;;;5115389;28;20676;-80
2021/04/11 00:46:51;;;;;;;40.77;31.43;;;6.70;99.90;;;;;;5116478;28;20226;-80
2021/04/11 00:49:20;;;;;;;37.37;27.50;;;6.70;99.90;;;;;;5116664;28;20169;-80
2021/04/11 00:51:46;;;;;;;32.77;26.50;;;6.80;99.90;;;;;;5115136;28;20624;-80
2021/04/11 00:54:12;;;;;;;30.77;26.03;;;6.70;99.90;;;;;;5115587;28;20188;-80
2021/04/11 00:56:40;;;;;;;30.13;24.53;;;6.50;99.90;;;;;;5115066;28;20649;-80
2021/04/11 00:59:08;;;;;;;26.53;23.77;;;6.50;99.90;;;;;;5115982;28;20252;-80
2021/04/11 01:01:36;;;;;;;25.20;22.23;;;6.50;99.90;;;;;;5116115;28;20171;-79
2021/04/11 01:04:03;;;;;;;26.47;23.57;;;6.50;99.90;;;;;;5116082;28;20197;-80
2021/04/11 01:06:33;;;;;;;28.87;24.50;;;6.40;99.90;;;;;;5116176;28;20260;-80
2021/04/11 01:09:00;;;;;;;26.30;23.13;;;6.40;99.90;;;;;;5115213;28;20608;-79
2021/04/11 01:11:31;;;;;;;26.27;22.67;;;6.40;99.90;;;;;;5116212;28;20177;-80
2021/04/11 01:14:01;;;;;;;25.53;21.53;;;6.40;99.90;;;;;;5114887;28;20535;-80
2021/04/11 01:16:28;;;;;;;25.53;21.83;;;6.30;99.90;;;;;;5116144;27;20280;-79
2021/04/11 01:18:54;;;;;;;25.50;22.40;;;6.20;99.90;;;;;;5114684;28;20241;-80
2021/04/11 01:21:56;;;;;;;26.40;22.27;;;6.20;99.90;;;;;;5116355;27;20211;-79
2021/04/11 01:24:40;;;;;;;27.47;22.20;;;6.20;99.90;;;;;;5072382;28;20645;-80
2021/04/11 01:27:09;;;;;;;29.73;23.93;;;6.20;99.90;;;;;;5094391;28;20170;-80
2021/04/11 01:29:35;;;;;;;28.53;24.13;;;6.30;99.90;;;;;;5113870;28;20199;-80
2021/04/11 01:32:02;;;;;;;31.37;25.70;;;6.30;99.90;;;;;;5114259;28;20184;-80
2021/04/11 01:34:28;;;;;;;29.87;25.30;;;6.30;99.90;;;;;;5115825;28;20173;-80
2021/04/11 01:36:55;;;;;;;31.47;25.60;;;6.30;99.90;;;;;;5116037;28;20246;-80
2021/04/11 01:39:25;;;;;;;30.30;25.40;;;6.20;99.90;;;;;;5115473;28;20162;-80
2021/04/11 01:41:53;;;;;;;30.43;26.10;;;6.20;99.90;;;;;;5115789;28;20166;-79
2021/04/11 01:44:22;;;;;;;33.33;27.93;;;6.20;99.90;;;;;;5114271;28;20636;-80
2021/04/11 01:46:49;;;;;;;34.90;28.77;;;6.30;99.90;;;;;;5114219;28;20634;-80
2021/04/11 01:49:16;;;;;;;33.07;28.03;;;6.20;99.90;;;;;;5114345;28;20173;-80
2021/04/11 01:51:46;;;;;;;38.40;28.60;;;6.20;99.90;;;;;;5093948;28;20207;-79
2021/04/11 01:54:26;;;;;;;33.27;28.17;;;6.30;99.90;;;;;;5104524;28;20169;-80
2021/04/11 01:56:51;;;;;;;33.00;25.77;;;6.40;99.90;;;;;;5113995;28;20197;-80
2021/04/11 01:59:35;;;;;;;30.77;26.33;;;6.40;99.90;;;;;;5114026;28;20227;-80
2021/04/11 02:02:04;;;;;;;27.07;23.23;;;6.40;99.90;;;;;;5113972;28;20200;-80
2021/04/11 02:04:30;;;;;;;25.93;22.37;;;6.30;99.90;;;;;;5113559;28;20179;-80
2021/04/11 02:07:01;;;;;;;23.67;20.53;;;6.40;99.90;;;;;;5096721;28;20181;-80
2021/04/11 02:09:30;;;;;;;29.27;23.17;;;6.30;99.90;;;;;;5113687;28;20184;-80
2021/04/11 02:11:59;;;;;;;33.93;24.60;;;6.30;99.90;;;;;;5115125;28;20162;-80
2021/04/11 02:14:25;;;;;;;34.23;25.87;;;6.30;99.90;;;;;;5113417;28;20314;-80
2021/04/11 02:16:51;;;;;;;31.63;23.87;;;6.20;99.90;;;;;;5096806;28;20300;-80
2021/04/11 02:19:23;;;;;;;29.17;24.03;;;6.20;99.90;;;;;;5114433;28;20187;-79
2021/04/11 02:21:58;;;;;;;33.83;25.40;;;6.20;99.90;;;;;;5114514;28;20181;-80
2021/04/11 02:24:24;;;;;;;35.27;25.67;;;5.90;99.90;;;;;;5113413;28;20168;-80
2021/04/11 02:26:50;;;;;;;34.10;25.43;;;5.90;99.90;;;;;;5114579;28;20165;-80
2021/04/11 02:29:18;;;;;;;35.80;26.97;;;6.00;99.90;;;;;;5114379;28;20178;-80
2021/04/11 02:31:44;;;;;;;33.27;24.47;;;6.10;99.90;;;;;;5114729;28;20557;-80
2021/04/11 02:34:24;;;;;;;26.87;22.40;;;6.10;99.90;;;;;;5114585;27;20165;-80
2021/04/11 02:36:55;;;;;;;19.60;17.47;;;6.20;99.90;;;;;;5114327;28;20225;-80
2021/04/11 02:39:27;;;;;;;19.77;17.67;;;6.20;99.90;;;;;;5114167;28;20172;-80
2021/04/11 02:41:54;;;;;;;14.33;13.03;;;6.10;99.90;;;;;;5114492;28;20176;-80
2021/04/11 02:44:20;;;;;;;13.93;12.63;;;6.00;99.90;;;;;;5112691;28;20173;-80
2021/04/11 02:46:47;;;;;;;10.97;9.97;;;6.00;99.90;;;;;;5113984;28;20165;-80
2021/04/11 02:49:19;;;;;;;10.80;10.00;;;5.90;99.90;;;;;;5114440;28;20488;-79
2021/04/11 02:51:45;;;;;;;10.13;9.33;;;5.90;99.90;;;;;;5109617;28;20193;-80
2021/04/11 02:54:14;;;;;;;11.67;10.67;;;5.90;99.90;;;;;;5112580;28;20196;-80
2021/04/11 02:56:42;;;;;;;14.90;13.50;;;5.90;99.90;;;;;;5113068;28;20200;-80
2021/04/11 02:59:12;;;;;;;17.03;15.27;;;6.00;99.90;;;;;;5114126;28;20232;-80
2021/04/11 03:01:44;;;;;;;17.20;15.43;;;6.00;99.90;;;;;;5114241;28;20165;-80
2021/04/11 03:04:19;;;;;;;16.60;15.10;;;6.00;99.90;;;;;;5112350;28;20276;-80
2021/04/11 03:06:53;;;;;;;17.60;15.80;;;6.00;99.90;;;;;;5113113;28;20534;-80
2021/04/11 03:09:24;;;;;;;18.53;16.60;;;6.00;99.90;;;;;;5112530;28;20169;-80
2021/04/11 03:11:53;;;;;;;17.07;15.37;;;6.10;99.90;;;;;;5112526;28;20161;-80
2021/04/11 03:14:23;;;;;;;16.87;15.10;;;6.00;99.90;;;;;;5112362;28;20169;-80
2021/04/11 03:16:48;;;;;;;17.13;15.50;;;6.00;99.90;;;;;;5113816;28;20212;-80
2021/04/11 03:19:23;;;;;;;16.87;15.27;;;6.00;99.90;;;;;;5112569;28;20169;-80
2021/04/11 03:21:48;;;;;;;15.40;14.00;;;6.10;99.90;;;;;;5114070;28;20198;-80
2021/04/11 03:24:15;;;;;;;15.50;14.00;;;6.10;99.90;;;;;;5112291;28;20266;-80
2021/04/11 03:27:03;;;;;;;16.13;14.63;;;6.00;99.90;;;;;;5112708;28;20169;-80
2021/04/11 03:29:45;;;;;;;16.07;14.57;;;5.90;99.90;;;;;;5112480;28;20180;-79
2021/04/11 03:32:40;;;;;;;16.27;14.60;;;5.90;99.90;;;;;;5112518;28;20191;-80
2021/04/11 03:35:08;;;;;;;20.73;17.77;;;5.80;99.90;;;;;;5091219;28;20225;-80
2021/04/11 03:37:36;;;;;;;26.17;21.00;;;5.80;99.90;;;;;;5091990;28;20204;-80
2021/04/11 03:40:04;;;;;;;24.63;20.90;;;5.80;99.90;;;;;;5135493;27;20327;-80
2021/04/11 03:42:33;;;;;;;22.87;19.83;;;6.00;99.90;;;;;;5112247;28;20165;-79
2021/04/11 03:45:00;;;;;;;24.07;21.43;;;6.00;99.90;;;;;;5091990;28;20222;-80
2021/04/11 03:47:47;;;;;;;24.43;21.63;;;5.80;99.90;;;;;;5094458;28;20170;-80
2021/04/11 03:50:16;;;;;;;25.03;20.70;;;5.80;99.90;;;;;;5115333;28;20653;-80
2021/04/11 03:52:53;;;;;;;23.13;20.63;;;5.90;99.90;;;;;;5117529;28;20172;-80
2021/04/11 03:55:22;;;;;;;23.43;20.93;;;5.90;99.90;;;;;;5117545;28;20169;-80
2021/04/11 03:57:58;;;;;;;22.30;19.90;;;5.90;99.90;;;;;;5116484;28;20200;-80
2021/04/11 04:00:38;;;;;;;22.87;20.27;;;6.10;99.90;;;;;;5116269;28;20194;-80
2021/04/11 04:03:15;;;;;;;22.57;20.07;;;6.10;99.90;;;;;;5117640;28;20172;-80
2021/04/11 04:05:42;;;;;;;27.37;20.00;;;6.10;99.90;;;;;;5117314;28;20173;-79
2021/04/11 04:08:08;;;;;;;22.23;18.57;;;6.10;99.90;;;;;;5116329;28;20177;-80
2021/04/11 04:10:41;;;;;;;19.90;17.90;;;6.10;99.90;;;;;;5115998;28;20181;-80
2021/04/11 04:13:28;;;;;;;23.40;19.80;;;6.00;99.90;;;;;;5116003;28;20173;-80
2021/04/11 04:15:56;;;;;;;20.33;18.07;;;6.00;99.90;;;;;;5116208;28;20626;-80
2021/04/11 04:18:47;;;;;;;18.90;16.93;;;6.20;99.90;;;;;;5117399;28;20207;-80
2021/04/11 04:21:54;;;;;;;18.50;16.60;;;6.40;99.90;;;;;;5116962;28;20533;-79
2021/04/11 04:24:34;;;;;;;18.10;15.80;;;6.30;99.90;;;;;;5014165;28;20227;-80
2021/04/11 04:27:07;;;;;;;18.73;16.80;;;6.00;99.90;;;;;;5014554;28;20199;-80
2021/04/11 04:29:38;;;;;;;21.50;17.77;;;6.00;99.90;;;;;;5069026;28;20199;-80
2021/04/11 04:32:38;;;;;;;22.43;18.73;;;5.90;99.90;;;;;;5116966;28;20196;-80
2021/04/11 04:35:04;;;;;;;17.63;16.00;;;5.80;99.90;;;;;;5076455;28;20282;-80
2021/04/11 04:37:46;;;;;;;17.13;15.50;;;5.80;99.90;;;;;;5116826;28;20685;-80
2021/04/11 04:40:29;;;;;;;15.60;14.03;;;5.80;99.90;;;;;;5116698;28;20173;-79
2021/04/11 04:42:58;;;;;;;15.47;14.07;;;5.80;99.90;;;;;;5115530;28;20198;-80
2021/04/11 04:45:30;;;;;;;13.50;12.30;;;5.70;99.90;;;;;;5116908;28;20166;-79
2021/04/11 04:48:10;;;;;;;13.93;12.63;;;5.80;99.90;;;;;;5116525;28;20169;-80
2021/04/11 04:50:52;;;;;;;13.80;12.27;;;5.90;99.90;;;;;;5115425;28;20680;-80
2021/04/11 04:53:38;;;;;;;13.77;12.47;;;6.00;99.90;;;;;;5114997;28;20173;-80
2021/04/11 04:56:06;;;;;;;14.43;13.03;;;6.00;99.90;;;;;;5115774;28;20172;-80
2021/04/11 04:58:37;;;;;;;13.80;12.60;;;6.10;99.90;;;;;;5116654;28;20193;-80
2021/04/11 05:01:16;;;;;;;13.97;12.70;;;6.10;99.90;;;;;;5115933;28;20674;-80
2021/04/11 05:03:46;;;;;;;12.93;11.93;;;6.10;99.90;;;;;;5115553;28;20264;-80
2021/04/11 05:06:37;;;;;;;13.63;12.43;;;6.20;99.90;;;;;;5116558;28;20176;-80
2021/04/11 05:09:27;;;;;;;12.87;11.70;;;6.10;99.90;;;;;;5116583;28;20177;-80
2021/04/11 05:12:10;;;;;;;11.30;10.40;;;6.00;99.90;;;;;;5115079;28;20172;-80
2021/04/11 05:14:56;;;;;;;16.10;12.37;;;6.10;99.90;;;;;;5115024;28;20525;-80
2021/04/11 05:17:32;;;;;;;14.03;12.73;;;6.10;99.90;;;;;;5095931;28;20649;-80
2021/04/11 05:20:11;;;;;;;14.03;12.67;;;6.10;99.90;;;;;;5094793;28;20196;-80
2021/04/11 05:22:42;;;;;;;14.57;12.90;;;6.10;99.90;;;;;;5115227;28;20234;-80
2021/04/11 05:25:20;;;;;;;16.00;14.60;;;6.10;99.90;;;;;;5115947;28;20168;-80
2021/04/11 05:28:14;;;;;;;15.50;14.10;;;6.10;99.90;;;;;;5114883;28;20171;-80
2021/04/11 05:30:49;;;;;;;13.97;12.80;;;6.10;99.90;;;;;;5114356;28;20218;-79
2021/04/11 05:33:18;;;;;;;14.13;12.83;;;6.00;99.90;;;;;;5116113;28;20624;-80
2021/04/11 05:35:46;;;;;;;13.80;12.70;;;6.10;99.90;;;;;;5115827;28;20618;-80
2021/04/11 05:38:20;;;;;;;13.70;12.53;;;6.10;99.90;;;;;;5115837;27;20708;-80
2021/04/11 05:40:53;;;;;;;15.20;12.93;;;6.10;99.90;;;;;;5115819;28;20158;-80
2021/04/11 05:43:36;;;;;;;14.90;13.50;;;6.10;99.90;;;;;;5115699;28;20618;-80
2021/04/11 05:46:07;;;;;;;14.83;13.63;;;6.20;99.90;;;;;;5114245;28;20176;-80
2021/04/11 05:49:03;;;;;;;13.30;12.20;;;6.10;99.90;;;;;;5115743;28;20156;-80
2021/04/11 05:51:56;;;;;;;13.77;12.67;;;6.00;99.90;;;;;;5114552;28;20205;-80
2021/04/11 05:54:28;;;;;;;13.30;12.27;;;6.20;99.90;;;;;;5114625;28;20557;-80
2021/04/11 05:57:06;;;;;;;12.07;11.07;;;6.20;99.90;;;;;;5115468;28;20192;-80
2021/04/11 05:59:42;;;;;;;12.47;11.27;;;6.20;99.90;;;;;;5114657;28;20580;-80
2021/04/11 06:02:18;;;;;;;11.97;10.87;;;6.10;99.90;;;;;;5114100;28;20200;-80
2021/04/11 06:04:50;;;;;;;11.77;10.87;;;6.20;99.90;;;;;;5128710;27;20386;-80
2021/04/11 06:07:24;;;;;;;11.40;10.50;;;6.10;99.90;;;;;;5115395;28;20652;-80
2021/04/11 06:10:17;;;;;;;10.87;9.97;;;6.00;99.90;;;;;;5115337;28;20146;-80
2021/04/11 06:12:55;;;;;;;13.77;10.13;;;6.00;99.90;;;;;;5114142;28;20624;-80
2021/04/11 06:15:55;;;;;;;10.47;9.57;;;6.00;99.90;;;;;;5115127;28;20161;-79
2021/04/11 06:18:22;;;;;;;9.80;9.10;;;5.90;99.90;;;;;;5113589;28;20216;-79
2021/04/11 06:20:51;;;;;;;10.33;9.43;;;5.70;99.90;;;;;;5114778;28;20256;-80
2021/04/11 06:23:43;;;;;;;9.77;9.13;;;5.70;99.90;;;;;;5114606;28;20222;-80
2021/04/11 06:26:16;;;;;;;10.17;9.37;;;5.70;99.90;;;;;;5114658;28;20170;-79
2021/04/11 06:28:51;;;;;;;11.13;10.03;;;5.70;99.90;;;;;;5114709;28;20219;-80
2021/04/11 06:31:19;;;;;;;9.37;8.67;;;5.90;99.90;;;;;;5112686;28;20162;-80
2021/04/11 06:33:54;;;;;;;10.83;9.47;;;6.00;99.90;;;;;;5114676;28;20192;-80
2021/04/11 06:36:32;;;;;;;11.80;10.63;;;5.90;99.90;;;;;;5113501;28;20172;-80
2021/04/11 06:39:05;;;;;;;12.67;9.07;;;5.90;99.90;;;;;;5114840;28;20185;-80
2021/04/11 06:41:43;;;;;;;10.37;9.57;;;5.70;99.90;;;;;;5113002;28;20158;-80
2021/04/11 06:44:19;;;;;;;10.70;9.67;;;5.90;99.90;;;;;;5103423;28;20177;-80
2021/04/11 06:47:15;;;;;;;11.67;10.53;;;6.20;99.90;;;;;;5113704;28;20641;-79
2021/04/11 06:50:00;;;;;;;12.87;11.00;;;6.40;99.90;;;;;;5114256;28;20188;-80
2021/04/11 06:52:52;;;;;;;12.03;11.00;;;6.50;99.90;;;;;;5114345;28;20248;-80
2021/04/11 06:55:56;;;;;;;11.07;10.13;;;6.30;99.90;;;;;;5113783;28;20165;-80
2021/04/11 06:58:46;;;;;;;11.63;10.43;;;6.30;99.90;;;;;;5113175;28;20717;-81
2021/04/11 07:01:18;;;;;;;10.80;9.93;;;6.60;99.90;;;;;;5113262;28;20170;-81
2021/04/11 07:04:05;;;;;;;9.73;9.03;;;6.70;99.90;;;;;;5112617;28;20177;-80
2021/04/11 07:07:01;;;;;;;9.93;9.00;;;6.90;99.90;;;;;;5112896;28;20522;-80
2021/04/11 07:10:04;;;;;;;8.67;7.97;;;7.00;99.90;;;;;;5113187;28;20161;-81
2021/04/11 07:13:06;;;;;;;9.50;8.43;;;6.90;99.90;;;;;;5113409;28;20165;-81
2021/04/11 07:15:52;;;;;;;9.73;8.80;;;7.00;99.90;;;;;;5113015;28;20210;-81
2021/04/11 07:18:27;;;;;;;9.50;8.70;;;7.20;99.90;;;;;;5112833;28;20197;-81
2021/04/11 07:21:11;;;;;;;9.43;8.63;;;7.40;99.90;;;;;;5113825;28;20164;-81
2021/04/11 07:23:55;;;;;;;8.73;7.80;;;7.50;99.90;;;;;;5112343;28;20177;-81
2021/04/11 07:26:39;;;;;;;8.57;7.77;;;7.60;99.90;;;;;;5113776;28;20500;-82
2021/04/11 07:29:52;;;;;;;8.00;7.20;;;7.60;99.90;;;;;;5112761;28;20222;-82
2021/04/11 07:32:27;;;;;;;7.07;6.37;;;7.80;99.90;;;;;;5074903;28;20220;-82
2021/04/11 07:35:04;;;;;;;7.73;7.13;;;7.60;99.90;;;;;;5114528;28;20176;-82
2021/04/11 07:38:00;;;;;;;6.63;6.03;;;7.80;99.90;;;;;;5115253;28;20211;-81
2021/04/11 07:40:54;;;;;;;5.93;5.40;;;7.80;99.90;;;;;;5113765;28;20178;-82
2021/04/11 07:43:53;;;;;;;11.27;6.13;;;7.70;99.90;;;;;;5115015;28;20158;-82
2021/04/11 07:46:31;;;;;;;7.60;4.53;;;7.80;99.90;;;;;;5113709;28;20255;-79
2021/04/11 07:49:28;;;;;;;5.27;3.60;;;7.80;99.90;;;;;;5114172;28;20606;-80
2021/04/11 07:52:10;;;;;;;4.80;3.40;;;7.30;99.90;;;;;;5114869;28;20196;-80
2021/04/11 07:55:20;;;;;;;5.77;3.67;;;7.30;99.90;;;;;;5116230;28;20182;-80
2021/04/11 07:58:07;;;;;;;6.53;3.10;;;7.30;99.90;;;;;;5081819;28;20209;-80
2021/04/11 08:00:48;;;;;;;3.50;2.87;;;7.60;99.90;;;;;;5113766;28;20178;-79
2021/04/11 08:03:14;;;;;;;8.13;3.03;;;7.60;99.90;;;;;;5142964;27;20174;-80
2021/04/11 08:06:01;;;;;;;3.47;2.60;;;7.30;99.90;;;;;;5113399;28;20235;-79
2021/04/11 08:08:42;;;;;;;7.17;2.60;;;7.10;99.90;;;;;;5112100;28;20613;-81
2021/04/11 08:11:16;;;;;;;4.83;2.53;;;7.40;99.90;;;;;;5113708;28;20153;-80
2021/04/11 08:14:10;;;;;;;7.33;2.97;;;7.40;99.90;;;;;;5113401;28;20631;-80
2021/04/11 08:17:00;;;;;;;7.57;3.20;;;7.30;99.90;;;;;;5113929;28;20667;-81
2021/04/11 08:20:02;;;;;;;5.40;2.83;;;7.60;99.90;;;;;;5112615;28;20180;-81
2021/04/11 08:23:18;;;;;;;5.10;2.33;;;8.00;99.90;;;;;;5114289;28;20162;-80
2021/04/11 08:25:59;;;;;;;7.33;2.17;;;7.70;99.90;;;;;;5080002;28;20178;-80
2021/04/11 08:28:46;;;;;;;5.87;2.20;;;7.60;99.90;;;;;;5114387;28;20188;-81
2021/04/11 08:31:11;;;;;;;4.60;1.80;;;7.50;99.90;;;;;;5114520;28;20157;-80
2021/04/11 08:34:01;;;;;;;10.17;2.50;;;7.10;99.90;;;;;;5114511;28;20181;-80
2021/04/11 08:36:45;;;;;;;5.40;2.50;;;7.10;99.90;;;;;;5118680;28;20508;-80
2021/04/11 08:39:32;;;;;;;15.07;2.97;;;7.20;99.90;;;;;;5116152;28;20191;-81
2021/04/11 08:42:30;;;;;;;5.40;2.97;;;7.10;99.90;;;;;;5115331;28;20180;-81
2021/04/11 08:45:30;;;;;;;5.47;2.40;;;6.90;99.90;;;;;;5115635;28;20161;-80
2021/04/11 08:48:16;;;;;;;5.87;2.00;;;7.00;99.90;;;;;;5115481;28;20162;-80
2021/04/11 08:50:50;;;;;;;5.17;2.40;;;7.30;99.90;;;;;;5116475;28;20636;-80
2021/04/11 08:53:40;;;;;;;2.73;1.80;;;7.60;99.90;;;;;;5116801;28;20158;-79
2021/04/11 08:56:23;;;;;;;3.53;1.40;;;7.70;99.90;;;;;;5116802;28;20157;-80
2021/04/11 08:59:09;;;;;;;2.13;1.73;;;8.00;99.90;;;;;;5115599;28;20296;-80
2021/04/11 09:02:13;;;;;;;1.77;1.37;;;8.40;99.90;;;;;;5113825;27;20169;-80
2021/04/11 09:04:53;;;;;;;6.40;1.90;;;8.20;99.90;;;;;;5072473;28;20193;-79
2021/04/11 09:07:40;;;;;;;4.37;1.50;;;8.50;99.90;;;;;;5146152;27;20173;-81
2021/04/11 09:10:36;;;;;;;3.30;1.90;;;8.60;99.90;;;;;;5107132;28;20186;-80
2021/04/11 09:13:37;;;;;;;4.07;1.50;;;9.00;99.90;;;;;;5097369;28;20170;-80
2021/04/11 09:16:25;;;;;;;4.90;1.63;;;8.70;99.90;;;;;;5096267;28;20592;-81
2021/04/11 09:19:14;;;;;;;2.17;1.50;;;8.90;99.90;;;;;;5116324;28;20637;-81
2021/04/11 09:22:17;;;;;;;5.20;1.38;;;9.40;99.90;;;;;;5116385;28;20158;-80
2021/04/11 09:25:01;;;;;;;4.20;1.38;;;12.00;99.90;;;;;;5094548;28;20174;-80
2021/04/11 09:27:50;;;;;;;1.25;1.15;;;12.00;99.90;;;;;;5100880;28;20206;-80
2021/04/11 09:30:44;;;;;;;2.58;1.38;;;11.10;99.90;;;;;;5110193;28;20969;-81
2021/04/11 09:33:10;;;;;;;2.67;1.27;;;12.50;99.90;;;;;;5108921;28;20516;-79
2021/04/11 09:35:38;;;;;;;4.38;1.45;;;14.00;99.90;;;;;;5115470;28;20296;-80
2021/04/11 09:38:22;;;;;;;1.15;0.93;;;12.20;99.90;;;;;;5113466;28;20202;-81
2021/04/11 09:41:12;;;;;;;1.63;1.15;;;11.20;99.90;;;;;;5113623;28;20170;-82
2021/04/11 09:44:12;;;;;;;6.38;1.20;;;10.40;99.90;;;;;;5115277;28;20162;-81
2021/04/11 09:46:43;;;;;;;2.67;1.50;;;10.90;99.90;;;;;;5108582;28;20542;-81
2021/04/11 09:49:26;;;;;;;2.30;1.00;;;11.10;99.90;;;;;;5093338;28;20185;-81
2021/04/11 09:52:09;;;;;;;2.55;1.35;;;10.80;99.90;;;;;;5127932;27;20252;-80
2021/04/11 09:54:49;;;;;;;2.45;1.30;;;10.60;99.90;;;;;;5093665;28;20521;-77
2021/04/11 09:57:32;;;;;;;1.48;1.08;;;9.60;99.90;;;;;;5104280;28;20200;-78
2021/04/11 10:00:19;;;;;;;1.92;1.20;;;9.30;99.90;;;;;;5114754;28;20165;-78
2021/04/11 10:03:08;;;;;;;2.78;1.30;;;8.90;99.90;;;;;;5113660;28;20185;-79
2021/04/11 10:05:52;;;;;;;2.95;1.40;;;9.10;99.90;;;;;;5094147;28;20186;-79
2021/04/11 10:08:32;;;;;;;2.63;1.48;;;9.00;99.90;;;;;;5112643;28;20157;-79
2021/04/11 10:11:28;;;;;;;4.85;1.85;;;8.60;99.90;;;;;;5113497;27;20185;-80
2021/04/11 10:14:05;;;;;;;2.90;1.60;;;8.70;99.90;;;;;;5122485;27;20165;-80
2021/04/11 10:16:48;;;;;;;3.70;1.63;;;8.60;99.90;;;;;;5094586;28;20489;-79
2021/04/11 10:19:32;;;;;;;2.33;1.50;;;8.50;99.90;;;;;;5133299;27;20240;-81
2021/04/11 10:22:37;;;;;;;5.25;1.70;;;8.60;99.90;;;;;;5114041;27;20197;-80
2021/04/11 10:25:25;;;;;;;2.25;1.73;;;8.60;99.90;;;;;;5113027;28;20176;-80
2021/04/11 10:28:01;;;;;;;3.28;1.52;;;8.90;99.90;;;;;;5113262;28;20666;-81
2021/04/11 10:30:27;;;;;;;2.90;1.40;;;8.80;99.90;;;;;;5114533;28;20233;-81
2021/04/11 10:33:11;;;;;;;3.83;1.55;;;8.40;99.90;;;;;;5111521;28;20266;-81
2021/04/11 10:35:52;;;;;;;4.97;2.20;;;8.00;99.90;;;;;;5113446;28;20169;-80
2021/04/11 10:38:29;;;;;;;8.68;2.30;;;8.00;99.90;;;;;;5114313;28;20203;-81
2021/04/11 10:41:07;;;;;;;5.20;2.53;;;8.20;99.90;;;;;;5114008;28;20169;-78
2021/04/11 10:43:59;;;;;;;9.63;2.83;;;8.30;99.90;;;;;;5112934;28;20169;-79
2021/04/11 10:46:31;;;;;;;8.70;2.40;;;8.30;99.90;;;;;;5113097;28;20158;-79
2021/04/11 10:49:27;;;;;;;12.37;3.03;;;8.20;99.90;;;;;;5114257;28;20185;-78
2021/04/11 10:52:26;;;;;;;4.73;3.27;;;8.20;99.90;;;;;;5124136;27;20513;-78
2021/04/11 10:55:25;;;;;;;7.90;3.10;;;8.30;99.90;;;;;;5106983;28;20189;-79
2021/04/11 10:58:07;;;;;;;11.60;2.57;;;8.40;99.90;;;;;;5113899;28;20587;-80
2021/04/11 11:00:51;;;;;;;3.77;2.20;;;8.60;99.90;;;;;;5116513;28;20180;-80
2021/04/11 11:04:02;;;;;;;5.68;2.60;;;8.60;99.90;;;;;;5114413;28;20636;-78
2021/04/11 11:06:52;;;;;;;3.15;1.48;;;8.50;99.90;;;;;;5034966;28;20183;-78
2021/04/11 11:09:23;;;;;;;4.55;1.70;;;8.50;99.90;;;;;;5051298;28;20163;-78
2021/04/11 11:12:23;;;;;;;3.83;1.50;;;8.60;99.90;;;;;;5085562;28;20219;-78
2021/04/11 11:15:16;;;;;;;5.40;1.30;;;8.80;99.90;;;;;;5115650;28;20295;-79
2021/04/11 11:18:02;;;;;;;4.88;1.33;;;9.10;99.90;;;;;;5112759;28;20215;-78
2021/04/11 11:20:51;;;;;;;2.47;1.42;;;9.30;99.90;;;;;;5111536;28;20250;-79
2021/04/11 11:23:36;;;;;;;4.20;1.33;;;9.90;99.90;;;;;;5112339;28;20173;-78
2021/04/11 11:26:22;;;;;;;3.90;1.02;;;10.50;99.90;;;;;;5112768;28;20564;-79
2021/04/11 11:29:07;;;;;;;6.05;1.75;;;11.10;99.90;;;;;;5112667;28;20172;-80
2021/04/11 11:32:04;;;;;;;3.03;1.55;;;11.60;99.90;;;;;;5113308;28;20169;-79
2021/04/11 11:34:51;;;;;;;6.80;1.20;;;11.50;99.90;;;;;;5099153;28;20166;-79
2021/04/11 11:37:34;;;;;;;3.17;1.20;;;12.20;99.90;;;;;;5113665;28;20219;-79
2021/04/11 11:40:06;;;;;;;2.65;1.00;;;12.40;99.90;;;;;;5113894;28;20154;-80
2021/04/11 11:43:00;;;;;;;2.75;1.38;;;12.60;99.90;;;;;;5112113;28;20158;-80
2021/04/11 11:45:59;;;;;;;4.28;1.55;;;12.00;99.90;;;;;;5113819;28;20158;-79
2021/04/11 11:48:53;;;;;;;6.15;1.40;;;11.40;99.90;;;;;;5089091;28;20196;-79
2021/04/11 11:51:54;;;;;;;3.67;1.13;;;11.30;99.90;;;;;;5112131;28;20518;-79
2021/04/11 11:54:48;;;;;;;2.97;1.35;;;11.40;99.90;;;;;;5113626;28;20609;-80
2021/04/11 11:57:42;;;;;;;3.20;1.42;;;11.20;99.90;;;;;;5113850;28;20209;-79
2021/04/11 12:00:16;;;;;;;4.95;1.30;;;11.10;99.90;;;;;;5111870;28;20173;-79
2021/04/11 12:03:04;;;;;;;3.25;1.13;;;11.50;99.90;;;;;;5111832;28;20260;-79
2021/04/11 12:05:44;;;;;;;6.10;1.30;;;12.30;99.90;;;;;;5113418;28;20192;-78
2021/04/11 12:08:37;;;;;;;6.82;1.52;;;12.50;99.90;;;;;;5113792;28;20153;-83
2021/04/11 12:11:19;;;;;;;3.38;1.00;;;13.20;99.90;;;;;;5114168;28;20191;-78
2021/04/11 12:14:05;;;;;;;8.52;1.08;;;13.40;99.90;;;;;;5117343;28;20165;-79
2021/04/11 12:16:38;;;;;;;6.07;1.15;;;13.60;99.90;;;;;;5117679;28;20188;-79
2021/04/11 12:19:19;;;;;;;1.55;0.90;;;14.70;99.90;;;;;;5115979;28;20592;-79
2021/04/11 12:22:10;;;;;;;3.88;0.90;;;16.30;99.90;;;;;;5115383;28;20261;-79
2021/04/11 12:24:47;;;;;;;4.28;1.02;;;16.20;99.90;;;;;;5117393;28;20494;-79
2021/04/11 12:27:15;;;;;;;2.05;1.40;;;14.60;99.90;;;;;;5115827;28;20240;-79
2021/04/11 12:29:49;;;;;;;4.72;1.15;;;13.90;99.90;;;;;;5116918;28;20161;-79
2021/04/11 12:32:34;;;;;;;3.65;1.20;;;13.00;99.90;;;;;;5116247;28;20558;-79
2021/04/11 12:35:13;;;;;;;4.25;1.30;;;12.10;99.90;;;;;;5115573;28;20176;-79
2021/04/11 12:37:50;;;;;;;4.85;1.27;;;11.80;99.90;;;;;;5116914;28;20232;-78
2021/04/11 12:40:40;;;;;;;2.60;0.90;;;11.20;99.90;;;;;;5117149;28;20165;-81
2021/04/11 12:43:35;;;;;;;6.50;1.55;;;11.10;99.90;;;;;;5106521;28;20169;-78
2021/04/11 12:46:31;;;;;;;4.38;1.35;;;11.20;99.90;;;;;;5116757;28;20176;-79
2021/04/11 12:49:18;;;;;;;4.38;1.40;;;11.50;99.90;;;;;;5109972;28;20214;-80
2021/04/11 12:51:47;;;;;;;2.38;1.00;;;11.90;99.90;;;;;;5116372;28;20176;-80
2021/04/11 12:54:21;;;;;;;3.35;1.38;;;11.90;99.90;;;;;;5116116;28;20244;-81
2021/04/11 12:56:57;;;;;;;2.05;1.17;;;12.30;99.90;;;;;;5114782;28;20500;-81
2021/04/11 12:59:39;;;;;;;3.80;1.45;;;12.70;99.90;;;;;;5115258;28;20173;-81
2021/04/11 13:02:17;;;;;;;2.00;0.93;;;12.00;99.90;;;;;;5111357;28;20165;-80
2021/04/11 13:04:49;;;;;;;6.75;1.40;;;11.30;99.90;;;;;;5096010;28;20166;-80
2021/04/11 13:07:30;;;;;;;1.73;0.90;;;10.80;99.90;;;;;;5095816;28;20515;-80
2021/04/11 13:10:20;;;;;;;3.30;1.08;;;10.60;99.90;;;;;;5104086;28;20167;-80
2021/04/11 13:12:59;;;;;;;5.93;1.27;;;10.50;99.90;;;;;;5112937;28;20610;-81
2021/04/11 13:15:37;;;;;;;2.83;1.30;;;10.80;99.90;;;;;;5115437;27;20176;-81
2021/04/11 13:18:11;;;;;;;4.68;1.00;;;11.00;99.90;;;;;;5115035;28;20185;-86
2021/04/11 13:21:03;;;;;;;5.20;1.52;;;11.80;99.90;;;;;;5119913;28;20226;-81
2021/04/11 13:23:35;;;;;;;1.08;0.98;;;12.30;99.90;;;;;;5095031;28;20181;-81
2021/04/11 13:26:24;;;;;;;5.88;1.40;;;12.50;99.90;;;;;;5115786;28;20157;-81
2021/04/11 13:29:26;;;;;;;6.40;1.10;;;12.50;99.90;;;;;;5114543;28;20182;-77
2021/04/11 13:31:59;;;;;;;3.83;1.00;;;12.40;99.90;;;;;;5096393;28;20169;-77
2021/04/11 13:34:34;;;;;;;6.15;1.52;;;12.20;99.90;;;;;;5129313;27;20177;-77
2021/04/11 13:37:11;;;;;;;4.30;1.35;;;12.10;99.90;;;;;;5105204;28;20248;-77
2021/04/11 13:39:40;;;;;;;4.93;1.20;;;12.00;99.90;;;;;;5119220;28;20168;-78
2021/04/11 13:42:44;;;;;;;3.40;1.10;;;12.00;99.90;;;;;;5115743;28;20181;-78
2021/04/11 13:45:28;;;;;;;5.20;1.48;;;12.00;99.90;;;;;;5117072;28;20247;-78
2021/04/11 13:48:06;;;;;;;3.00;1.15;;;12.20;99.90;;;;;;5117066;28;20157;-77
2021/04/11 13:50:39;;;;;;;3.97;1.40;;;12.30;99.90;;;;;;5114994;28;20153;-79